Time;durP1;ratioP1;P1;durP2;ratioP2;P2;SDS_P1;SDS_P2;PMS_P1;PMS_P2;Temp;Humidity;BMP_temperature;BMP_pressure;BME280_temperature;BME280_humidity;BME280_pressure;Samples;Min_cycle;Max_cycle;Signal;HPM_P1;HPM_P2
2021/07/19 00:00:59;;;;;;;12.13;9.10;;;;;;;;;;4940270;29;20092;-79
2021/07/19 00:03:26;;;;;;;14.63;9.05;;;;;;;;;;4940591;29;20047;-79
2021/07/19 00:05:54;;;;;;;10.48;8.10;;;;;;;;;;4939746;29;20051;-78
2021/07/19 00:08:21;;;;;;;12.80;8.43;;;;;;;;;;4939331;29;20119;-78
2021/07/19 00:10:48;;;;;;;12.52;8.77;;;;;;;;;;4939649;29;20050;-78
2021/07/19 00:13:16;;;;;;;12.75;8.30;;;;;;;;;;4939629;29;20461;-78
2021/07/19 00:15:43;;;;;;;13.63;8.43;;;;;;;;;;4938907;29;20099;-78
2021/07/19 00:18:10;;;;;;;11.38;8.43;;;;;;;;;;4941478;29;20237;-78
2021/07/19 00:20:37;;;;;;;11.32;8.15;;;;;;;;;;4941655;29;20419;-78
2021/07/19 00:23:04;;;;;;;11.70;8.40;;;;;;;;;;4942147;29;20528;-78
2021/07/19 00:25:30;;;;;;;12.98;9.10;;;;;;;;;;4942102;29;20934;-78
2021/07/19 00:27:57;;;;;;;11.27;8.88;;;;;;;;;;4943946;29;20083;-78
2021/07/19 00:30:26;;;;;;;16.70;8.90;;;;;;;;;;4943852;29;20127;-78
2021/07/19 00:32:53;;;;;;;10.73;8.10;;;;;;;;;;4942328;29;20048;-78
2021/07/19 00:35:20;;;;;;;13.13;9.73;;;;;;;;;;4942739;29;20052;-79
2021/07/19 00:37:47;;;;;;;14.00;9.70;;;;;;;;;;4940938;29;20070;-79
2021/07/19 00:40:16;;;;;;;12.52;8.15;;;;;;;;;;4939276;29;20044;-78
2021/07/19 00:42:46;;;;;;;13.98;8.98;;;;;;;;;;4942694;29;20103;-78
2021/07/19 00:45:15;;;;;;;12.30;8.70;;;;;;;;;;4943220;29;20106;-78
2021/07/19 00:47:44;;;;;;;13.40;9.30;;;;;;;;;;4943426;29;20362;-78
2021/07/19 00:50:12;;;;;;;12.93;9.00;;;;;;;;;;4968832;23;20500;-78
2021/07/19 00:52:39;;;;;;;12.60;8.48;;;;;;;;;;4956861;29;20055;-79
2021/07/19 00:55:08;;;;;;;11.55;8.55;;;;;;;;;;4955385;29;20055;-79
2021/07/19 00:57:36;;;;;;;12.88;8.57;;;;;;;;;;4955947;29;20051;-79
2021/07/19 01:00:06;;;;;;;12.90;9.23;;;;;;;;;;4949347;29;20087;-79
2021/07/19 01:02:34;;;;;;;14.23;8.45;;;;;;;;;;4937122;29;20111;-79
2021/07/19 01:05:04;;;;;;;14.43;8.52;;;;;;;;;;4936783;29;20763;-79
2021/07/19 01:07:33;;;;;;;12.90;8.70;;;;;;;;;;4936556;29;20052;-79
2021/07/19 01:10:01;;;;;;;13.77;8.90;;;;;;;;;;4937363;29;20103;-79
2021/07/19 01:12:28;;;;;;;12.30;7.85;;;;;;;;;;4948193;29;20110;-79
2021/07/19 01:14:55;;;;;;;13.35;9.05;;;;;;;;;;4955239;28;20051;-78
2021/07/19 01:17:21;;;;;;;12.93;8.52;;;;;;;;;;4954941;28;20102;-78
2021/07/19 01:19:50;;;;;;;12.88;9.30;;;;;;;;;;4955135;28;20098;-79
2021/07/19 01:22:57;;;;;;;10.75;8.32;;;;;;;;;;4955610;29;20062;-79
2021/07/19 01:25:45;;;;;;;11.23;8.23;;;;;;;;;;4955014;29;20051;-79
2021/07/19 01:28:33;;;;;;;12.63;8.13;;;;;;;;;;4955690;29;20118;-79
2021/07/19 01:31:03;;;;;;;11.32;8.50;;;;;;;;;;4957192;29;20043;-79
2021/07/19 01:33:31;;;;;;;12.75;8.90;;;;;;;;;;4956252;29;20051;-79
2021/07/19 01:36:00;;;;;;;12.27;8.68;;;;;;;;;;4955057;29;20070;-80
2021/07/19 01:38:28;;;;;;;12.32;8.40;;;;;;;;;;4955717;29;20051;-80
2021/07/19 01:40:55;;;;;;;10.75;8.07;;;;;;;;;;4955709;28;20083;-79
2021/07/19 01:43:23;;;;;;;13.48;9.02;;;;;;;;;;4955880;28;20047;-80
2021/07/19 01:45:51;;;;;;;11.85;8.77;;;;;;;;;;4954951;29;20102;-80
2021/07/19 01:48:19;;;;;;;13.05;8.93;;;;;;;;;;4955789;29;20055;-80
2021/07/19 01:50:47;;;;;;;13.15;8.07;;;;;;;;;;4955824;29;20051;-80
2021/07/19 01:53:14;;;;;;;11.50;8.70;;;;;;;;;;4956467;29;20054;-80
2021/07/19 01:55:43;;;;;;;11.93;8.65;;;;;;;;;;4955686;28;20110;-80
2021/07/19 01:58:10;;;;;;;12.43;8.50;;;;;;;;;;4956446;29;20106;-80
2021/07/19 02:00:37;;;;;;;10.88;8.05;;;;;;;;;;4956497;28;20043;-80
2021/07/19 02:03:05;;;;;;;11.88;9.02;;;;;;;;;;4957030;29;20102;-80
2021/07/19 02:05:32;;;;;;;12.65;8.48;;;;;;;;;;4955935;29;20047;-80
2021/07/19 02:08:02;;;;;;;10.85;8.15;;;;;;;;;;4958479;28;20079;-79
2021/07/19 02:10:30;;;;;;;13.45;8.52;;;;;;;;;;4972398;29;20103;-79
2021/07/19 02:12:59;;;;;;;13.75;9.20;;;;;;;;;;4971794;29;20043;-79
2021/07/19 02:15:27;;;;;;;11.43;8.23;;;;;;;;;;4972002;28;20051;-79
2021/07/19 02:17:57;;;;;;;12.95;8.40;;;;;;;;;;4966029;28;20047;-79
2021/07/19 02:20:26;;;;;;;11.85;8.35;;;;;;;;;;4965190;28;20051;-80
2021/07/19 02:22:55;;;;;;;10.55;7.85;;;;;;;;;;4959629;29;20043;-80
2021/07/19 02:25:23;;;;;;;11.63;7.75;;;;;;;;;;4959379;29;20047;-80
2021/07/19 02:27:53;;;;;;;12.73;8.52;;;;;;;;;;4960064;29;20541;-79
2021/07/19 02:30:21;;;;;;;;;;;;;;;;;;4960107;29;20587;-79
2021/07/19 02:32:57;;;;;;;12.80;7.88;;;;;;;;;;4959567;29;19922;-80
2021/07/19 02:35:27;;;;;;;10.88;8.10;;;;;;;;;;4959870;29;20102;-80
2021/07/19 02:37:56;;;;;;;11.43;8.27;;;;;;;;;;4960968;29;20442;-80
2021/07/19 02:40:25;;;;;;;11.30;8.30;;;;;;;;;;4961710;29;20043;-79
2021/07/19 02:42:57;;;;;;;11.07;8.15;;;;;;;;;;4960652;28;20631;-79
2021/07/19 02:45:26;;;;;;;12.88;8.40;;;;;;;;;;4960379;29;20496;-79
2021/07/19 02:47:54;;;;;;;10.77;7.70;;;;;;;;;;4960704;29;20051;-79
2021/07/19 02:50:25;;;;;;;11.13;7.63;;;;;;;;;;4960632;29;20074;-79
2021/07/19 02:52:53;;;;;;;12.73;8.52;;;;;;;;;;4960816;29;20067;-80
2021/07/19 02:55:20;;;;;;;11.13;8.45;;;;;;;;;;4960362;28;20488;-79
2021/07/19 02:57:47;;;;;;;13.00;9.10;;;;;;;;;;4960220;29;20051;-80
2021/07/19 03:00:17;;;;;;;12.15;8.25;;;;;;;;;;4959973;29;20051;-80
2021/07/19 03:02:47;;;;;;;13.43;9.32;;;;;;;;;;4960623;28;20075;-80
2021/07/19 03:05:17;;;;;;;15.53;10.47;;;;;;;;;;4959824;28;20448;-79
2021/07/19 03:07:50;;;;;;;13.15;9.85;;;;;;;;;;4960033;28;20289;-79
2021/07/19 03:10:20;;;;;;;15.00;10.85;;;;;;;;;;4959075;28;20051;-79
2021/07/19 03:12:49;;;;;;;13.60;10.25;;;;;;;;;;4960064;28;20112;-79
2021/07/19 03:15:17;;;;;;;16.95;12.10;;;;;;;;;;4959301;28;20075;-79
2021/07/19 03:17:45;;;;;;;16.77;12.25;;;;;;;;;;4959915;28;20099;-79
2021/07/19 03:20:13;;;;;;;17.20;11.55;;;;;;;;;;4959854;28;20114;-80
2021/07/19 03:22:41;;;;;;;14.05;10.40;;;;;;;;;;4959471;28;20103;-80
2021/07/19 03:25:11;;;;;;;13.93;9.60;;;;;;;;;;4959272;28;20043;-79
2021/07/19 03:27:39;;;;;;;13.68;9.88;;;;;;;;;;4959893;28;20043;-80
2021/07/19 03:30:06;;;;;;;15.85;9.57;;;;;;;;;;4959173;28;20098;-80
2021/07/19 03:32:34;;;;;;;14.50;8.90;;;;;;;;;;4959692;28;20059;-80
2021/07/19 03:35:03;;;;;;;12.18;8.80;;;;;;;;;;4958678;28;20051;-80
2021/07/19 03:37:30;;;;;;;11.07;8.23;;;;;;;;;;4959556;28;20051;-80
2021/07/19 03:39:58;;;;;;;12.60;8.90;;;;;;;;;;4959704;28;20047;-80
2021/07/19 03:42:27;;;;;;;13.90;10.95;;;;;;;;;;4959270;28;20055;-80
2021/07/19 03:44:55;;;;;;;14.85;10.02;;;;;;;;;;4958570;28;20055;-80
2021/07/19 03:47:22;;;;;;;14.00;10.60;;;;;;;;;;4959580;28;20051;-80
2021/07/19 03:49:49;;;;;;;15.45;11.40;;;;;;;;;;4958950;28;20043;-80
2021/07/19 03:52:17;;;;;;;15.02;11.48;;;;;;;;;;4959446;28;20051;-80
2021/07/19 03:54:44;;;;;;;17.17;11.52;;;;;;;;;;4958815;28;20043;-79
2021/07/19 03:57:11;;;;;;;16.88;12.18;;;;;;;;;;4960204;28;20047;-79
2021/07/19 03:59:40;;;;;;;16.40;12.10;;;;;;;;;;4959361;28;20111;-80
2021/07/19 04:02:13;;;;;;;17.00;11.27;;;;;;;;;;4972841;28;20047;-79
2021/07/19 04:04:44;;;;;;;14.10;9.50;;;;;;;;;;4978122;28;20058;-79
2021/07/19 04:07:13;;;;;;;11.85;8.55;;;;;;;;;;4977801;28;20047;-79
2021/07/19 04:09:41;;;;;;;14.73;9.85;;;;;;;;;;4977501;28;20047;-79
2021/07/19 04:12:10;;;;;;;13.93;9.07;;;;;;;;;;4966687;28;20047;-80
2021/07/19 04:14:39;;;;;;;13.43;9.20;;;;;;;;;;4960220;29;20408;-79
2021/07/19 04:17:06;;;;;;;12.05;7.95;;;;;;;;;;4960253;29;20051;-79
2021/07/19 04:19:33;;;;;;;12.57;8.70;;;;;;;;;;4960148;28;20051;-79
2021/07/19 04:22:00;;;;;;;11.52;7.88;;;;;;;;;;4960519;29;20133;-79
2021/07/19 04:24:27;;;;;;;12.10;9.00;;;;;;;;;;4960889;29;20051;-80
2021/07/19 04:26:55;;;;;;;14.80;10.13;;;;;;;;;;4960588;29;20098;-79
2021/07/19 04:29:24;;;;;;;11.77;8.68;;;;;;;;;;4961067;29;20051;-80
2021/07/19 04:31:56;;;;;;;12.80;8.32;;;;;;;;;;4961246;29;20066;-79
2021/07/19 04:34:27;;;;;;;11.38;8.27;;;;;;;;;;4961237;29;20121;-79
2021/07/19 04:36:58;;;;;;;12.70;9.15;;;;;;;;;;4959610;29;20102;-79
2021/07/19 04:39:25;;;;;;;11.82;9.00;;;;;;;;;;4959980;28;20107;-79
2021/07/19 04:41:51;;;;;;;12.52;8.77;;;;;;;;;;4959544;28;20098;-79
2021/07/19 04:44:18;;;;;;;12.32;9.50;;;;;;;;;;4959785;29;20051;-79
2021/07/19 04:46:45;;;;;;;12.82;9.88;;;;;;;;;;4959970;28;20105;-79
2021/07/19 04:49:13;;;;;;;14.20;10.02;;;;;;;;;;4960679;28;20078;-79
2021/07/19 04:51:40;;;;;;;15.75;11.23;;;;;;;;;;4960370;29;20484;-79
2021/07/19 04:54:08;;;;;;;14.82;9.90;;;;;;;;;;4961734;29;20051;-80
2021/07/19 04:56:36;;;;;;;12.75;8.15;;;;;;;;;;4961042;29;20110;-80
2021/07/19 04:59:05;;;;;;;12.75;8.73;;;;;;;;;;4961095;29;20087;-80
2021/07/19 05:01:32;;;;;;;10.90;8.82;;;;;;;;;;4960839;29;20094;-80
2021/07/19 05:04:00;;;;;;;13.88;8.57;;;;;;;;;;4960724;28;20047;-80
2021/07/19 05:06:29;;;;;;;10.98;8.05;;;;;;;;;;4960253;28;20489;-80
2021/07/19 05:08:57;;;;;;;10.47;8.07;;;;;;;;;;4960144;28;20051;-80
2021/07/19 05:11:26;;;;;;;10.63;7.28;;;;;;;;;;4959819;28;20047;-80
2021/07/19 05:13:53;;;;;;;15.27;8.98;;;;;;;;;;4960031;29;20055;-80
2021/07/19 05:16:19;;;;;;;10.85;7.70;;;;;;;;;;4959438;28;20556;-80
2021/07/19 05:18:47;;;;;;;12.00;8.07;;;;;;;;;;4960726;28;20063;-80
2021/07/19 05:21:14;;;;;;;12.45;8.68;;;;;;;;;;4969718;29;20047;-80
2021/07/19 05:23:43;;;;;;;12.15;8.45;;;;;;;;;;4971002;29;20070;-79
2021/07/19 05:26:10;;;;;;;11.10;8.93;;;;;;;;;;4970011;29;20051;-79
2021/07/19 05:28:37;;;;;;;13.07;8.73;;;;;;;;;;4970689;28;20059;-79
2021/07/19 05:31:04;;;;;;;15.40;11.07;;;;;;;;;;4973060;29;20070;-79
2021/07/19 05:33:30;;;;;;;15.25;10.77;;;;;;;;;;4971540;29;20083;-79
2021/07/19 05:35:57;;;;;;;13.00;10.43;;;;;;;;;;4963203;29;20059;-79
2021/07/19 05:38:24;;;;;;;15.68;9.90;;;;;;;;;;4956841;29;20051;-79
2021/07/19 05:40:52;;;;;;;13.02;9.50;;;;;;;;;;4957858;28;20043;-79
2021/07/19 05:43:19;;;;;;;12.20;8.68;;;;;;;;;;4959705;29;20055;-79
2021/07/19 05:45:46;;;;;;;13.20;9.57;;;;;;;;;;4957683;29;20521;-79
2021/07/19 05:48:12;;;;;;;13.48;9.65;;;;;;;;;;4958778;28;20047;-79
2021/07/19 05:50:40;;;;;;;14.23;9.25;;;;;;;;;;4959190;28;20075;-79
2021/07/19 05:53:06;;;;;;;13.63;9.32;;;;;;;;;;4959385;29;20094;-79
2021/07/19 05:55:34;;;;;;;13.63;9.02;;;;;;;;;;4958940;29;20047;-79
2021/07/19 05:58:03;;;;;;;14.02;8.82;;;;;;;;;;4959366;29;20050;-79
2021/07/19 06:00:30;;;;;;;13.07;9.18;;;;;;;;;;4960901;29;20412;-80
2021/07/19 06:02:57;;;;;;;13.63;9.30;;;;;;;;;;4961278;28;20051;-78
2021/07/19 06:05:24;;;;;;;13.02;9.25;;;;;;;;;;4960245;28;20110;-80
2021/07/19 06:07:51;;;;;;;15.05;8.50;;;;;;;;;;4961669;28;20086;-80
2021/07/19 06:10:18;;;;;;;13.23;8.68;;;;;;;;;;4957746;28;20229;-80
2021/07/19 06:12:45;;;;;;;12.68;8.90;;;;;;;;;;4957577;28;20114;-80
2021/07/19 06:15:14;;;;;;;12.38;9.02;;;;;;;;;;4956210;29;20405;-80
2021/07/19 06:17:42;;;;;;;11.77;9.00;;;;;;;;;;4957980;29;20106;-80
2021/07/19 06:20:11;;;;;;;14.77;8.88;;;;;;;;;;4957143;28;20051;-81
2021/07/19 06:22:39;;;;;;;13.00;9.65;;;;;;;;;;4956328;29;20210;-80
2021/07/19 06:25:07;;;;;;;12.93;9.35;;;;;;;;;;4956038;29;20069;-81
2021/07/19 06:27:34;;;;;;;13.27;9.85;;;;;;;;;;4956577;29;20048;-80
2021/07/19 06:30:01;;;;;;;12.95;9.32;;;;;;;;;;4954791;29;20055;-78
2021/07/19 06:32:29;;;;;;;12.25;9.57;;;;;;;;;;4954637;29;20051;-79
2021/07/19 06:34:56;;;;;;;12.90;9.77;;;;;;;;;;4954255;29;20500;-79
2021/07/19 06:37:23;;;;;;;16.17;10.18;;;;;;;;;;4954895;29;20044;-79
2021/07/19 06:39:49;;;;;;;14.27;9.90;;;;;;;;;;4954586;28;20055;-79
2021/07/19 06:42:16;;;;;;;12.90;9.60;;;;;;;;;;4954679;28;20102;-80
2021/07/19 06:44:43;;;;;;;14.20;10.15;;;;;;;;;;4954866;28;20055;-80
2021/07/19 06:47:10;;;;;;;14.57;10.38;;;;;;;;;;4954836;29;20055;-80
2021/07/19 06:49:38;;;;;;;13.18;10.38;;;;;;;;;;4954890;29;20059;-79
2021/07/19 06:52:05;;;;;;;15.35;11.10;;;;;;;;;;4979713;23;20057;-77
2021/07/19 06:54:32;;;;;;;13.13;10.30;;;;;;;;;;4973169;28;20055;-77
2021/07/19 06:56:59;;;;;;;14.18;11.40;;;;;;;;;;4972589;28;20051;-77
2021/07/19 06:59:25;;;;;;;14.20;10.25;;;;;;;;;;4973349;28;20055;-78
2021/07/19 07:01:52;;;;;;;14.07;10.35;;;;;;;;;;4961606;28;20047;-80
2021/07/19 07:04:19;;;;;;;13.40;9.65;;;;;;;;;;4955989;28;20048;-78
2021/07/19 07:06:47;;;;;;;13.65;10.50;;;;;;;;;;4959595;28;20492;-79
2021/07/19 07:09:15;;;;;;;15.05;10.68;;;;;;;;;;4957354;28;20051;-79
2021/07/19 07:11:41;;;;;;;17.52;11.35;;;;;;;;;;4939883;29;20048;-79
2021/07/19 07:14:08;;;;;;;14.55;10.90;;;;;;;;;;4939839;29;20454;-79
2021/07/19 07:16:36;;;;;;;15.27;11.52;;;;;;;;;;4939579;29;20051;-79
2021/07/19 07:19:02;;;;;;;16.45;10.80;;;;;;;;;;4941415;29;20185;-79
2021/07/19 07:21:31;;;;;;;14.82;11.13;;;;;;;;;;4940717;29;20107;-80
2021/07/19 07:23:59;;;;;;;15.68;10.77;;;;;;;;;;4940546;29;20670;-80
2021/07/19 07:26:27;;;;;;;16.38;11.07;;;;;;;;;;4941293;29;20103;-80
2021/07/19 07:28:54;;;;;;;14.88;9.60;;;;;;;;;;4940854;29;20408;-80
2021/07/19 07:31:26;;;;;;;15.82;10.65;;;;;;;;;;4940256;29;20048;-80
2021/07/19 07:33:53;;;;;;;14.10;9.75;;;;;;;;;;4940474;29;20048;-79
2021/07/19 07:36:20;;;;;;;17.10;11.65;;;;;;;;;;4940306;29;20052;-80
2021/07/19 07:38:46;;;;;;;16.17;12.10;;;;;;;;;;4939943;29;20525;-80
2021/07/19 07:41:14;;;;;;;15.65;10.43;;;;;;;;;;4940029;29;20052;-80
2021/07/19 07:43:41;;;;;;;15.18;10.57;;;;;;;;;;4939611;29;20717;-80
2021/07/19 07:46:08;;;;;;;12.88;9.23;;;;;;;;;;4939231;29;20052;-80
2021/07/19 07:48:36;;;;;;;14.30;10.57;;;;;;;;;;4939252;29;20691;-80
2021/07/19 07:51:02;;;;;;;14.88;10.40;;;;;;;;;;4939897;29;20052;-80
2021/07/19 07:53:29;;;;;;;13.77;10.52;;;;;;;;;;4942715;29;20043;-82
2021/07/19 07:55:57;;;;;;;15.75;10.93;;;;;;;;;;4939946;29;20516;-83
2021/07/19 07:58:26;;;;;;;15.15;9.95;;;;;;;;;;4939774;29;20489;-80
2021/07/19 08:00:52;;;;;;;13.68;10.50;;;;;;;;;;4945239;29;20044;-81
2021/07/19 08:03:19;;;;;;;15.65;10.82;;;;;;;;;;4956666;28;20067;-79
2021/07/19 08:05:46;;;;;;;15.73;10.27;;;;;;;;;;4956868;29;20138;-79
2021/07/19 08:08:13;;;;;;;13.75;9.90;;;;;;;;;;4958394;28;20498;-80
2021/07/19 08:10:40;;;;;;;12.32;9.48;;;;;;;;;;4957676;28;20493;-79
2021/07/19 08:13:06;;;;;;;12.30;9.75;;;;;;;;;;4958489;28;20099;-80
2021/07/19 08:15:36;;;;;;;13.25;9.15;;;;;;;;;;4957575;28;20096;-80
2021/07/19 08:18:03;;;;;;;11.68;9.10;;;;;;;;;;4958776;28;20167;-79
2021/07/19 08:20:30;;;;;;;14.02;8.77;;;;;;;;;;4957736;28;20461;-79
2021/07/19 08:22:57;;;;;;;14.07;9.48;;;;;;;;;;4957362;28;20098;-79
2021/07/19 08:25:24;;;;;;;15.18;8.95;;;;;;;;;;4956525;28;20519;-78
2021/07/19 08:27:51;;;;;;;10.63;8.25;;;;;;;;;;4945675;28;20078;-79
2021/07/19 08:30:18;;;;;;;11.82;8.60;;;;;;;;;;4945706;29;20051;-79
2021/07/19 08:32:47;;;;;;;11.02;7.78;;;;;;;;;;4948873;29;20209;-80
2021/07/19 08:35:14;;;;;;;8.82;7.93;;;;;;;;;;4947748;29;20055;-78
2021/07/19 08:37:43;;;;;;;9.38;7.40;;;;;;;;;;4953595;29;20089;-81
2021/07/19 08:40:12;;;;;;;12.40;8.95;;;;;;;;;;4958844;28;20493;-80
2021/07/19 08:42:40;;;;;;;11.27;7.53;;;;;;;;;;4958146;28;20524;-79
2021/07/19 08:45:08;;;;;;;11.15;7.82;;;;;;;;;;4958434;28;20133;-80
2021/07/19 08:47:36;;;;;;;11.68;7.72;;;;;;;;;;4959259;28;20055;-79
2021/07/19 08:50:05;;;;;;;10.23;7.22;;;;;;;;;;4974459;28;20071;-78
2021/07/19 08:52:32;;;;;;;12.82;7.25;;;;;;;;;;4977628;28;20047;-78
2021/07/19 08:54:59;;;;;;;10.20;8.23;;;;;;;;;;4978246;28;20047;-79
2021/07/19 08:57:28;;;;;;;11.18;7.65;;;;;;;;;;4979197;28;20039;-79
2021/07/19 08:59:58;;;;;;;10.00;6.78;;;;;;;;;;4978854;28;20090;-80
2021/07/19 09:02:25;;;;;;;10.07;7.05;;;;;;;;;;4978891;28;20050;-79
2021/07/19 09:04:51;;;;;;;9.02;6.90;;;;;;;;;;4976377;28;20049;-79
2021/07/19 09:07:20;;;;;;;10.23;7.18;;;;;;;;;;4977968;28;20035;-80
2021/07/19 09:09:50;;;;;;;10.18;6.57;;;;;;;;;;4978787;28;20048;-79
2021/07/19 09:12:18;;;;;;;9.15;6.40;;;;;;;;;;4978644;28;20074;-80
2021/07/19 09:14:48;;;;;;;8.93;6.70;;;;;;;;;;4978367;28;20070;-86
2021/07/19 09:17:25;;;;;;;11.70;6.95;;;;;;;;;;4979091;28;20070;-81
2021/07/19 09:19:52;;;;;;;9.38;6.70;;;;;;;;;;4978569;28;20031;-79
2021/07/19 09:22:26;;;;;;;10.52;6.82;;;;;;;;;;4978773;28;20075;-78
2021/07/19 09:24:52;;;;;;;8.70;6.00;;;;;;;;;;4978495;28;20027;-79
2021/07/19 09:27:21;;;;;;;8.35;6.40;;;;;;;;;;4978276;28;20051;-78
2021/07/19 09:29:48;;;;;;;8.25;6.68;;;;;;;;;;4978213;28;20039;-79
2021/07/19 09:32:16;;;;;;;8.13;6.40;;;;;;;;;;4977699;28;20035;-79
2021/07/19 09:34:43;;;;;;;9.07;7.15;;;;;;;;;;4977566;28;20073;-78
2021/07/19 09:37:11;;;;;;;7.63;6.40;;;;;;;;;;4977360;28;20038;-80
2021/07/19 09:39:45;;;;;;;8.32;6.53;;;;;;;;;;4977334;28;20035;-78
2021/07/19 09:42:14;;;;;;;8.75;5.80;;;;;;;;;;4977416;28;20039;-80
2021/07/19 09:44:51;;;;;;;9.73;6.47;;;;;;;;;;4976527;28;20087;-80
2021/07/19 09:47:17;;;;;;;8.68;6.60;;;;;;;;;;4974199;28;20047;-80
2021/07/19 09:49:44;;;;;;;7.72;6.60;;;;;;;;;;4967753;28;20087;-80
2021/07/19 09:52:12;;;;;;;7.43;6.20;;;;;;;;;;4963711;28;20083;-82
2021/07/19 09:54:43;;;;;;;8.40;6.13;;;;;;;;;;4958908;28;20567;-81
2021/07/19 09:57:11;;;;;;;9.27;6.32;;;;;;;;;;4959165;28;20047;-79
2021/07/19 09:59:38;;;;;;;8.20;6.22;;;;;;;;;;4958238;28;20047;-79
2021/07/19 10:02:08;;;;;;;9.00;6.97;;;;;;;;;;4958890;28;20106;-80
2021/07/19 10:04:43;;;;;;;10.13;6.53;;;;;;;;;;4959816;28;20071;-79
2021/07/19 10:07:10;;;;;;;10.00;6.85;;;;;;;;;;4959960;28;20516;-79
2021/07/19 10:09:38;;;;;;;8.40;5.45;;;;;;;;;;4959708;28;20047;-80
2021/07/19 10:12:17;;;;;;;8.27;6.22;;;;;;;;;;4958988;28;20400;-80
2021/07/19 10:14:47;;;;;;;9.32;6.30;;;;;;;;;;4957471;29;20134;-80
2021/07/19 10:17:15;;;;;;;7.32;5.50;;;;;;;;;;4957915;29;20063;-80
2021/07/19 10:19:42;;;;;;;9.48;6.68;;;;;;;;;;4957887;29;20062;-81
2021/07/19 10:22:10;;;;;;;7.88;5.80;;;;;;;;;;4957984;28;20063;-79
2021/07/19 10:24:37;;;;;;;6.90;5.60;;;;;;;;;;4958156;28;20622;-79
2021/07/19 10:27:04;;;;;;;8.20;6.90;;;;;;;;;;4958174;29;20110;-79
2021/07/19 10:29:32;;;;;;;9.45;5.75;;;;;;;;;;4957571;29;20047;-80
2021/07/19 10:32:00;;;;;;;8.30;5.85;;;;;;;;;;4957656;29;20051;-80
2021/07/19 10:34:27;;;;;;;8.15;6.10;;;;;;;;;;4958254;29;20082;-80
2021/07/19 10:36:57;;;;;;;7.35;5.70;;;;;;;;;;4957381;29;20102;-79
2021/07/19 10:39:30;;;;;;;10.27;6.18;;;;;;;;;;4959007;28;20079;-84
2021/07/19 10:42:02;;;;;;;8.02;6.00;;;;;;;;;;4960461;29;20051;-80
2021/07/19 10:44:33;;;;;;;62.75;32.85;;;;;;;;;;4959460;29;20110;-81
2021/07/19 10:47:12;;;;;;;12.13;7.32;;;;;;;;;;4960302;29;20047;-78
2021/07/19 10:49:41;;;;;;;14.23;7.63;;;;;;;;;;4959575;29;20047;-79
2021/07/19 10:52:10;;;;;;;7.60;5.78;;;;;;;;;;4960118;28;20086;-79
2021/07/19 10:54:47;;;;;;;8.88;5.72;;;;;;;;;;4960211;28;20134;-79
2021/07/19 10:57:17;;;;;;;7.85;5.38;;;;;;;;;;4960154;29;20055;-80
2021/07/19 10:59:44;;;;;;;11.25;7.50;;;;;;;;;;4960701;29;20058;-78
2021/07/19 11:02:26;;;;;;;40.97;20.40;;;;;;;;;;4960922;29;20077;-79
2021/07/19 11:04:53;;;;;;;12.88;6.65;;;;;;;;;;4960349;28;20138;-79
2021/07/19 11:07:20;;;;;;;13.25;6.60;;;;;;;;;;4960000;28;20047;-79
2021/07/19 11:09:47;;;;;;;8.43;5.45;;;;;;;;;;4960141;28;20440;-79
2021/07/19 11:12:16;;;;;;;8.13;4.55;;;;;;;;;;4958804;28;20047;-79
2021/07/19 11:14:48;;;;;;;8.73;5.90;;;;;;;;;;4958110;28;20553;-82
2021/07/19 11:17:18;;;;;;;9.90;5.03;;;;;;;;;;4960160;28;20098;-79
2021/07/19 11:19:48;;;;;;;9.40;5.25;;;;;;;;;;4959912;28;20058;-79
2021/07/19 11:22:23;;;;;;;13.50;7.78;;;;;;;;;;4960861;28;20563;-80
2021/07/19 11:24:52;;;;;;;8.82;4.82;;;;;;;;;;4959330;28;20169;-80
2021/07/19 11:27:30;;;;;;;6.90;4.15;;;;;;;;;;4959558;28;20098;-80
2021/07/19 11:30:00;;;;;;;7.25;4.90;;;;;;;;;;4959938;28;20055;-80
2021/07/19 11:32:30;;;;;;;13.45;4.85;;;;;;;;;;4959255;28;20412;-81
2021/07/19 11:35:07;;;;;;;8.90;4.72;;;;;;;;;;4958776;28;20051;-79
2021/07/19 11:37:35;;;;;;;8.27;4.32;;;;;;;;;;4959070;28;20047;-78
2021/07/19 11:40:03;;;;;;;7.85;4.50;;;;;;;;;;4958481;28;20047;-80
2021/07/19 11:42:31;;;;;;;6.47;4.25;;;;;;;;;;4959336;28;20055;-79
2021/07/19 11:45:02;;;;;;;8.75;5.00;;;;;;;;;;4958895;28;20464;-80
2021/07/19 11:47:31;;;;;;;8.05;5.22;;;;;;;;;;4960106;28;20071;-80
2021/07/19 11:50:03;;;;;;;6.97;5.60;;;;;;;;;;4959579;28;20051;-80
2021/07/19 11:52:30;;;;;;;7.88;5.43;;;;;;;;;;4958598;28;20047;-80
2021/07/19 11:54:57;;;;;;;7.90;4.95;;;;;;;;;;4958850;28;20047;-80
2021/07/19 11:57:24;;;;;;;5.95;4.40;;;;;;;;;;4959079;28;20043;-80
2021/07/19 11:59:51;;;;;;;6.75;5.20;;;;;;;;;;4958599;28;20051;-80
2021/07/19 12:02:27;;;;;;;5.97;4.18;;;;;;;;;;4958879;28;20047;-80
2021/07/19 12:04:55;;;;;;;10.32;7.53;;;;;;;;;;4959561;29;20089;-80
2021/07/19 12:07:25;;;;;;;7.63;4.88;;;;;;;;;;4959317;29;20047;-80
2021/07/19 12:10:01;;;;;;;6.30;3.92;;;;;;;;;;4958647;29;20047;-79
2021/07/19 12:12:28;;;;;;;8.50;5.47;;;;;;;;;;4958770;29;20047;-79
2021/07/19 12:14:57;;;;;;;7.85;5.50;;;;;;;;;;4959073;28;20078;-79
2021/07/19 12:17:28;;;;;;;9.70;6.97;;;;;;;;;;4959410;28;20054;-80
2021/07/19 12:19:56;;;;;;;7.47;4.88;;;;;;;;;;4959251;28;20110;-79
2021/07/19 12:22:22;;;;;;;7.75;5.13;;;;;;;;;;4959390;28;20043;-80
2021/07/19 12:24:52;;;;;;;6.97;4.35;;;;;;;;;;4960962;28;20102;-80
2021/07/19 12:27:19;;;;;;;6.18;4.63;;;;;;;;;;4959534;28;20107;-79
2021/07/19 12:29:46;;;;;;;6.55;4.85;;;;;;;;;;4958922;28;20103;-80
2021/07/19 12:32:13;;;;;;;7.82;4.43;;;;;;;;;;4959207;28;20095;-80
2021/07/19 12:34:41;;;;;;;7.93;5.30;;;;;;;;;;4958741;28;20134;-79
2021/07/19 12:37:11;;;;;;;5.30;4.30;;;;;;;;;;4958338;28;20138;-78
2021/07/19 12:39:42;;;;;;;8.23;5.05;;;;;;;;;;4957409;28;20055;-79
2021/07/19 12:42:11;;;;;;;6.82;4.45;;;;;;;;;;4958246;28;20055;-79
2021/07/19 12:44:40;;;;;;;9.63;7.20;;;;;;;;;;4958113;28;20142;-79
2021/07/19 12:47:08;;;;;;;9.60;6.13;;;;;;;;;;4958360;28;20277;-79
2021/07/19 12:49:37;;;;;;;7.45;4.65;;;;;;;;;;4958193;28;20493;-79
2021/07/19 12:52:06;;;;;;;6.65;4.60;;;;;;;;;;4958397;28;20074;-80
2021/07/19 12:54:34;;;;;;;6.80;4.40;;;;;;;;;;4979505;23;20042;-79
2021/07/19 12:57:02;;;;;;;9.00;4.53;;;;;;;;;;4977742;28;20529;-79
2021/07/19 12:59:28;;;;;;;7.45;4.88;;;;;;;;;;4973944;28;20117;-79
2021/07/19 13:01:59;;;;;;;10.02;6.15;;;;;;;;;;4972304;28;20458;-79
2021/07/19 13:04:27;;;;;;;6.32;4.45;;;;;;;;;;4972609;28;20054;-79
2021/07/19 13:06:54;;;;;;;6.93;4.00;;;;;;;;;;4973841;28;20105;-79
2021/07/19 13:09:25;;;;;;;6.82;4.53;;;;;;;;;;4972945;28;20468;-79
2021/07/19 13:12:01;;;;;;;11.43;8.20;;;;;;;;;;4965860;28;20134;-79
2021/07/19 13:14:38;;;;;;;6.78;5.03;;;;;;;;;;4953098;28;20047;-79
2021/07/19 13:17:04;;;;;;;8.05;4.15;;;;;;;;;;4953322;28;20055;-79
2021/07/19 13:19:33;;;;;;;8.25;4.10;;;;;;;;;;4953129;28;20110;-79
2021/07/19 13:22:01;;;;;;;5.38;3.90;;;;;;;;;;4952827;28;20492;-79
2021/07/19 13:24:36;;;;;;;10.80;4.05;;;;;;;;;;4952856;28;20519;-79
2021/07/19 13:27:05;;;;;;;6.32;3.55;;;;;;;;;;4952964;28;20534;-79
2021/07/19 13:29:32;;;;;;;;;;;;;;;;;;4953338;28;20054;-78
2021/07/19 13:32:10;;;;;;;10.70;4.03;;;;;;;;;;4953482;29;19985;-78
2021/07/19 13:34:37;;;;;;;7.38;4.20;;;;;;;;;;4952553;28;20426;-79
2021/07/19 13:37:06;;;;;;;9.38;3.97;;;;;;;;;;4953033;28;20051;-79
2021/07/19 13:39:33;;;;;;;7.30;4.05;;;;;;;;;;4954032;28;20043;-79
2021/07/19 13:42:07;;;;;;;8.82;3.85;;;;;;;;;;4953806;28;20055;-79
2021/07/19 13:44:35;;;;;;;8.77;4.38;;;;;;;;;;4953284;28;20540;-80
2021/07/19 13:47:02;;;;;;;7.00;4.30;;;;;;;;;;4953318;28;20098;-80
2021/07/19 13:49:29;;;;;;;7.43;4.30;;;;;;;;;;4953053;28;20051;-79
2021/07/19 13:51:56;;;;;;;7.15;4.30;;;;;;;;;;4952407;28;20516;-80
2021/07/19 13:54:22;;;;;;;8.40;4.25;;;;;;;;;;4952526;28;20052;-79
2021/07/19 13:56:49;;;;;;;8.00;4.07;;;;;;;;;;4952248;28;20196;-79
2021/07/19 13:59:18;;;;;;;6.63;4.25;;;;;;;;;;4952786;28;20044;-79
2021/07/19 14:01:45;;;;;;;7.82;4.03;;;;;;;;;;4952618;28;20500;-79
2021/07/19 14:04:14;;;;;;;8.48;5.45;;;;;;;;;;4952932;29;20453;-80
2021/07/19 14:06:41;;;;;;;6.38;3.83;;;;;;;;;;4955668;29;20043;-79
2021/07/19 14:09:08;;;;;;;8.55;4.20;;;;;;;;;;4960169;28;20051;-79
2021/07/19 14:11:34;;;;;;;10.77;4.43;;;;;;;;;;4957376;29;20066;-79
2021/07/19 14:14:01;;;;;;;6.13;3.55;;;;;;;;;;4957437;28;20051;-79
2021/07/19 14:16:30;;;;;;;8.40;5.50;;;;;;;;;;4960412;28;20058;-79
2021/07/19 14:18:56;;;;;;;9.85;4.78;;;;;;;;;;4960136;28;20082;-79
2021/07/19 14:21:23;;;;;;;10.55;4.65;;;;;;;;;;4959642;28;20424;-79
2021/07/19 14:23:50;;;;;;;7.25;3.65;;;;;;;;;;4956217;28;20102;-79
2021/07/19 14:26:17;;;;;;;7.75;3.80;;;;;;;;;;4956380;28;20464;-79
2021/07/19 14:28:44;;;;;;;8.60;4.32;;;;;;;;;;4956738;28;20043;-79
2021/07/19 14:31:10;;;;;;;8.07;3.90;;;;;;;;;;4958403;28;20047;-79
2021/07/19 14:33:47;;;;;;;8.60;4.05;;;;;;;;;;4960420;28;20047;-79
2021/07/19 14:36:14;;;;;;;7.85;4.25;;;;;;;;;;4955991;28;20441;-80
2021/07/19 14:38:40;;;;;;;7.80;3.90;;;;;;;;;;4956443;28;20140;-79
2021/07/19 14:41:07;;;;;;;6.40;3.83;;;;;;;;;;4960181;28;20051;-79